Terminal Aerodrome Forecast
Issued by NWS Tampa Bay Area, FL

Home | Current Version | Previous Version | Text Only | Print | Product List | Glossary On
Versions: 1 2 3 4 5 6 7 8 9 10 11 12 13 14 15 16 17 18 19 20 21
301
FTUS42 KTBW 250537
TAFTPA
TAF
KTPA 250537Z 2506/2606 29010G17KT P6SM FEW030 OVC040
     FM250900 29008KT P6SM FEW030 SCT040
     FM251700 27009KT P6SM FEW050 FEW250
     FM260200 27005KT P6SM SKC=

USA.gov is the U.S. government's official web portal to all federal, state and local government web resources and services.